Time;durP1;ratioP1;P1;durP2;ratioP2;P2;SDS_P1;SDS_P2;PMS_P1;PMS_P2;Temp;Humidity;BMP_temperature;BMP_pressure;BME280_temperature;BME280_humidity;BME280_pressure;Samples;Min_cycle;Max_cycle;Signal;HPM_P1;HPM_P2
2023/04/18 00:01:11;;;;;;;16.88;10.65;;;12.20;99.90;;;;;;5053132;28;20044;-71
2023/04/18 00:04:16;;;;;;;17.58;10.50;;;12.00;99.90;;;;;;5052208;28;20040;-71
2023/04/18 00:07:21;;;;;;;18.60;10.77;;;;;;;;;;5052856;28;20056;-71
2023/04/18 00:10:25;;;;;;;14.80;10.10;;;;;;;;;;5053056;28;20155;-71
2023/04/18 00:13:29;;;;;;;18.83;13.48;;;11.80;99.90;;;;;;5052795;28;20040;-71
2023/04/18 00:16:33;;;;;;;19.52;14.13;;;12.00;99.90;;;;;;5052732;28;20040;-71
2023/04/18 00:19:40;;;;;;;21.40;14.52;;;12.10;99.90;;;;;;5051977;28;20203;-71
2023/04/18 00:22:45;;;;;;;23.50;14.23;;;11.60;99.90;;;;;;5052198;28;20112;-72
2023/04/18 00:25:49;;;;;;;23.92;14.85;;;12.70;99.90;;;;;;5052370;28;20543;-72
2023/04/18 00:28:53;;;;;;;25.05;15.05;;;;;;;;;;5051694;28;20040;-71
2023/04/18 00:31:57;;;;;;;20.73;14.90;;;12.20;99.90;;;;;;5051885;28;20047;-72
2023/04/18 00:35:01;;;;;;;25.13;15.80;;;12.00;99.90;;;;;;5052519;28;20806;-72
2023/04/18 00:38:05;;;;;;;20.65;15.60;;;11.90;99.90;;;;;;5052191;28;20040;-72
2023/04/18 00:41:09;;;;;;;23.33;16.08;;;12.00;99.90;;;;;;5051638;28;20087;-72
2023/04/18 00:44:13;;;;;;;24.92;15.77;;;12.20;99.90;;;;;;5052362;28;20048;-71
2023/04/18 00:47:17;;;;;;;21.98;16.35;;;;;;;;;;5051319;28;20068;-71
2023/04/18 00:50:22;;;;;;;22.30;16.58;;;12.40;99.90;;;;;;5052498;28;20044;-71
2023/04/18 00:53:26;;;;;;;24.55;17.48;;;12.50;99.90;;;;;;5051975;28;20048;-71
2023/04/18 00:56:30;;;;;;;22.70;17.92;;;;;;;;;;5051929;28;20040;-71
2023/04/18 00:59:35;;;;;;;23.65;16.67;;;;;;;;;;5051747;28;20048;-71
2023/04/18 01:02:39;;;;;;;28.25;17.02;;;10.70;99.90;;;;;;5050887;28;20040;-71
2023/04/18 01:05:44;;;;;;;26.02;17.70;;;12.00;99.90;;;;;;5050952;28;20052;-71
2023/04/18 01:08:50;;;;;;;23.67;16.10;;;;;;;;;;5052046;28;20048;-71
2023/04/18 01:11:55;;;;;;;22.73;16.15;;;12.00;99.90;;;;;;5051878;28;20048;-71
2023/04/18 01:14:59;;;;;;;22.92;16.88;;;12.00;99.90;;;;;;5051964;28;20511;-71
2023/04/18 01:18:07;;;;;;;28.10;16.48;;;13.00;99.90;;;;;;5051176;28;20048;-71
2023/04/18 01:21:13;;;;;;;25.92;16.10;;;11.90;99.90;;;;;;5050812;28;20056;-70
2023/04/18 01:24:17;;;;;;;23.15;15.63;;;;;;;;;;5051254;28;20051;-71
2023/04/18 01:27:22;;;;;;;20.30;15.65;;;;;;;;;;5051781;28;20051;-71
2023/04/18 01:30:26;;;;;;;21.27;15.52;;;12.70;99.90;;;;;;5051931;28;20043;-71
2023/04/18 01:33:31;;;;;;;22.95;15.32;;;11.80;99.90;;;;;;5051211;28;20049;-71
2023/04/18 01:36:36;;;;;;;22.35;15.65;;;11.90;99.90;;;;;;5051007;28;20056;-71
2023/04/18 01:39:40;;;;;;;24.17;15.80;;;11.80;99.90;;;;;;5050702;28;20052;-71
2023/04/18 01:42:44;;;;;;;22.15;15.60;;;;;;;;;;5050574;28;20040;-71
2023/04/18 01:45:48;;;;;;;25.08;15.63;;;11.80;99.90;;;;;;5050475;28;20044;-71
2023/04/18 01:48:52;;;;;;;21.40;15.15;;;11.80;99.90;;;;;;5050098;28;20116;-72
2023/04/18 01:51:58;;;;;;;23.08;15.00;;;12.60;99.90;;;;;;5050634;28;20051;-72
2023/04/18 01:55:02;;;;;;;23.92;14.32;;;11.90;99.90;;;;;;5051277;28;20064;-72
2023/04/18 01:58:07;;;;;;;19.95;14.20;;;11.70;99.90;;;;;;5050389;28;20052;-71
2023/04/18 02:01:13;;;;;;;19.88;13.77;;;;;;;;;;5050234;28;20048;-71
2023/04/18 02:04:17;;;;;;;18.45;13.50;;;11.50;99.90;;;;;;5051211;28;20396;-71
2023/04/18 02:07:24;;;;;;;25.77;14.38;;;;;;;;;;5050130;28;20056;-71
2023/04/18 02:10:27;;;;;;;21.38;14.45;;;11.50;99.90;;;;;;5050064;28;20052;-71
2023/04/18 02:13:32;;;;;;;20.92;14.80;;;;;;;;;;5050942;28;20397;-71
2023/04/18 02:16:36;;;;;;;21.92;15.27;;;11.00;99.90;;;;;;5051150;28;20040;-71
2023/04/18 02:19:40;;;;;;;20.73;14.90;;;;;;;;;;5051163;28;20397;-71
2023/04/18 02:22:45;;;;;;;21.17;15.02;;;11.70;99.90;;;;;;5050377;28;20063;-72
2023/04/18 02:25:49;;;;;;;26.33;16.38;;;11.40;99.90;;;;;;5050697;28;20056;-71
2023/04/18 02:28:54;;;;;;;22.15;15.90;;;11.00;99.90;;;;;;5049991;28;20043;-71
2023/04/18 02:31:59;;;;;;;22.25;15.98;;;;;;;;;;5050437;28;20043;-72
2023/04/18 02:35:03;;;;;;;22.33;15.27;;;;;;;;;;5051199;28;20043;-71
2023/04/18 02:38:08;;;;;;;19.60;13.80;;;;;;;;;;5049769;28;20048;-71
2023/04/18 02:41:14;;;;;;;20.13;13.43;;;11.50;99.90;;;;;;5049916;28;20068;-71
2023/04/18 02:44:17;;;;;;;19.25;13.88;;;11.50;99.90;;;;;;5050782;28;20048;-72
2023/04/18 02:47:21;;;;;;;18.30;12.02;;;11.50;99.90;;;;;;5049779;28;20067;-72
2023/04/18 02:50:26;;;;;;;17.63;11.15;;;11.40;99.90;;;;;;5038521;28;20040;-71
2023/04/18 02:53:32;;;;;;;15.25;10.70;;;11.50;99.90;;;;;;5049926;28;20492;-72
2023/04/18 02:56:38;;;;;;;16.80;12.20;;;11.70;99.90;;;;;;5049747;28;20044;-71
2023/04/18 03:00:21;;;;;;;17.70;11.63;;;11.60;99.90;;;;;;5048775;28;20241;-72
2023/04/18 03:03:57;;;;;;;16.67;12.23;;;11.40;99.90;;;;;;5040594;28;20055;-71
2023/04/18 03:07:15;;;;;;;17.15;12.38;;;11.40;99.90;;;;;;5053196;28;20048;-71
2023/04/18 03:10:19;;;;;;;17.48;12.18;;;;;;;;;;5052982;28;20040;-71
2023/04/18 03:13:24;;;;;;;20.58;13.10;;;11.50;99.90;;;;;;5053467;28;20517;-71
2023/04/18 03:16:28;;;;;;;17.95;13.13;;;12.40;99.90;;;;;;5053288;28;20037;-71
2023/04/18 03:19:33;;;;;;;18.42;13.07;;;;;;;;;;5054086;28;20401;-71
2023/04/18 03:22:43;;;;;;;18.23;12.88;;;11.40;99.90;;;;;;5052957;28;20044;-72
2023/04/18 03:25:48;;;;;;;18.80;13.02;;;11.40;99.90;;;;;;5052485;28;20421;-71
2023/04/18 03:28:53;;;;;;;20.23;13.48;;;;;;;;;;5053026;28;20048;-72
2023/04/18 03:31:57;;;;;;;20.63;12.10;;;;;;;;;;5053271;28;20064;-72
2023/04/18 03:35:02;;;;;;;19.67;13.60;;;11.50;99.90;;;;;;5053026;28;20641;-71
2023/04/18 03:38:07;;;;;;;19.38;12.88;;;11.60;99.90;;;;;;5053085;28;20056;-72
2023/04/18 03:41:15;;;;;;;17.73;12.75;;;;;;;;;;5052650;28;20060;-71
2023/04/18 03:44:19;;;;;;;16.40;12.10;;;11.50;99.90;;;;;;5053013;28;20044;-71
2023/04/18 03:47:23;;;;;;;18.45;11.55;;;12.50;99.90;;;;;;5052799;28;20056;-71
2023/04/18 03:50:33;;;;;;;18.60;11.98;;;11.60;99.90;;;;;;5052543;28;20044;-71
2023/04/18 03:53:38;;;;;;;18.88;12.10;;;14.10;99.90;;;;;;5052284;28;20056;-71
2023/04/18 03:56:43;;;;;;;18.42;12.63;;;;;;;;;;5040911;28;20052;-72
2023/04/18 03:59:47;;;;;;;14.40;11.32;;;10.80;99.90;;;;;;5052529;28;20515;-71
2023/04/18 04:02:51;;;;;;;17.85;11.45;;;;;;;;;;5053125;28;20044;-71
2023/04/18 04:05:57;;;;;;;15.63;11.02;;;11.50;99.90;;;;;;5053130;28;20393;-71
2023/04/18 04:09:02;;;;;;;16.52;10.75;;;;;;;;;;5052350;28;20052;-71
2023/04/18 04:12:07;;;;;;;16.27;10.65;;;;;;;;;;5051676;28;20040;-71
2023/04/18 04:15:11;;;;;;;14.73;9.30;;;11.60;99.90;;;;;;5052556;28;20173;-71
2023/04/18 04:18:28;;;;;;;12.45;10.15;;;11.40;99.90;;;;;;5051882;28;20392;-71
2023/04/18 04:21:34;;;;;;;11.63;9.63;;;11.40;99.90;;;;;;5052118;28;20044;-71
2023/04/18 04:24:40;;;;;;;13.10;9.35;;;;;;;;;;5051723;28;20151;-72
2023/04/18 04:27:46;;;;;;;13.95;9.35;;;;;;;;;;5051926;28;20057;-72
2023/04/18 04:30:54;;;;;;;14.57;9.13;;;;;;;;;;5040934;28;20150;-71
2023/04/18 04:33:58;;;;;;;15.88;10.15;;;;;;;;;;5052088;28;20068;-72
2023/04/18 04:37:03;;;;;;;13.25;9.73;;;;;;;;;;5051828;28;20043;-70
2023/04/18 04:40:09;;;;;;;15.88;10.65;;;11.70;99.90;;;;;;5040923;28;20048;-72
2023/04/18 04:43:21;;;;;;;19.40;10.20;;;;;;;;;;5051678;28;20401;-71
2023/04/18 04:46:29;;;;;;;15.82;10.45;;;13.20;99.90;;;;;;5051808;28;20044;-72
2023/04/18 04:49:33;;;;;;;13.20;9.82;;;11.70;99.90;;;;;;5051803;28;20040;-72
2023/04/18 04:52:39;;;;;;;14.95;10.93;;;11.60;99.90;;;;;;5052298;28;20044;-70
2023/04/18 04:55:43;;;;;;;15.88;10.15;;;11.80;99.90;;;;;;5051209;28;20070;-75
2023/04/18 04:58:48;;;;;;;14.75;10.52;;;12.00;99.90;;;;;;5052440;28;20060;-71
2023/04/18 05:01:57;;;;;;;14.70;10.23;;;;;;;;;;5050994;28;20408;-72
2023/04/18 05:05:01;;;;;;;16.23;10.63;;;11.60;99.90;;;;;;5040498;28;20052;-71
2023/04/18 05:08:05;;;;;;;19.35;11.68;;;11.70;99.90;;;;;;5052542;28;20068;-71
2023/04/18 05:11:09;;;;;;;17.52;10.45;;;12.00;99.90;;;;;;5051756;28;20044;-71
2023/04/18 05:14:14;;;;;;;16.17;10.63;;;11.90;99.90;;;;;;5052567;28;20607;-72
2023/04/18 05:17:18;;;;;;;17.58;11.43;;;;;;;;;;5052224;28;20036;-71
2023/04/18 05:20:23;;;;;;;19.38;11.13;;;11.80;99.90;;;;;;5051472;28;20040;-72
2023/04/18 05:23:26;;;;;;;12.60;9.98;;;11.70;99.90;;;;;;5050273;28;20580;-72
2023/04/18 05:26:30;;;;;;;17.95;10.45;;;13.80;99.90;;;;;;5051115;28;20047;-72
2023/04/18 05:29:34;;;;;;;19.77;11.60;;;11.90;99.90;;;;;;5050901;28;20500;-64
2023/04/18 05:32:39;;;;;;;16.73;10.77;;;12.00;99.90;;;;;;5050098;28;20519;-65
2023/04/18 05:35:43;;;;;;;17.13;9.88;;;12.00;99.90;;;;;;5051176;28;20044;-63
2023/04/18 05:38:47;;;;;;;16.77;10.52;;;11.90;99.90;;;;;;5051120;28;20060;-64
2023/04/18 05:41:51;;;;;;;13.55;10.20;;;12.00;99.90;;;;;;5050854;28;20048;-66
2023/04/18 05:44:55;;;;;;;15.27;10.95;;;11.60;99.90;;;;;;5051086;28;20048;-65
2023/04/18 05:47:59;;;;;;;18.38;9.65;;;12.10;99.90;;;;;;5050563;28;20056;-65
2023/04/18 05:51:04;;;;;;;14.60;10.90;;;12.00;99.90;;;;;;5051050;28;20496;-65
2023/04/18 05:54:08;;;;;;;18.02;11.25;;;12.10;99.90;;;;;;5051106;28;20048;-65
2023/04/18 05:57:12;;;;;;;16.75;11.18;;;11.40;99.90;;;;;;5051031;28;20056;-64
2023/04/18 06:00:17;;;;;;;16.90;11.00;;;12.50;99.90;;;;;;5050875;28;20051;-65
2023/04/18 06:03:21;;;;;;;15.15;10.93;;;12.20;99.90;;;;;;5050854;28;20052;-64
2023/04/18 06:06:26;;;;;;;22.48;11.02;;;12.40;99.90;;;;;;5050843;28;20056;-64
2023/04/18 06:09:30;;;;;;;21.95;11.23;;;12.30;99.90;;;;;;5050770;28;20052;-64
2023/04/18 06:12:34;;;;;;;17.73;11.95;;;12.40;99.90;;;;;;5050392;28;20055;-65
2023/04/18 06:15:38;;;;;;;27.75;12.23;;;12.40;99.90;;;;;;5049493;28;20504;-65
2023/04/18 06:18:42;;;;;;;19.27;12.00;;;12.50;99.90;;;;;;5049926;28;20052;-63
2023/04/18 06:21:47;;;;;;;20.80;12.73;;;11.70;99.90;;;;;;5049166;28;20397;-65
2023/04/18 06:24:54;;;;;;;25.98;11.75;;;;;;;;;;5049931;28;20409;-64
2023/04/18 06:27:58;;;;;;;20.42;12.00;;;;;;;;;;5050007;28;20059;-64
2023/04/18 06:31:02;;;;;;;20.10;11.65;;;13.00;99.90;;;;;;5050602;28;20044;-63
2023/04/18 06:34:06;;;;;;;15.63;11.02;;;12.10;99.90;;;;;;5050479;28;20051;-64
2023/04/18 06:37:11;;;;;;;17.42;11.70;;;13.80;99.90;;;;;;5053501;28;20032;-65
2023/04/18 06:40:14;;;;;;;16.75;10.27;;;13.80;99.90;;;;;;5054126;28;20064;-64
2023/04/18 06:43:20;;;;;;;14.05;9.00;;;14.10;99.90;;;;;;5054017;28;20060;-63
2023/04/18 06:46:25;;;;;;;14.32;8.18;;;14.30;99.90;;;;;;5053095;28;20040;-63
2023/04/18 06:49:29;;;;;;;21.60;10.43;;;14.50;99.90;;;;;;5053822;28;20044;-64
2023/04/18 06:52:36;;;;;;;14.70;7.35;;;15.00;99.90;;;;;;5054023;28;20059;-64
2023/04/18 06:55:41;;;;;;;10.63;7.10;;;15.60;99.90;;;;;;5054205;28;20051;-65
2023/04/18 06:58:45;;;;;;;18.35;7.93;;;16.20;98.70;;;;;;5053853;28;20496;-64
2023/04/18 07:01:49;;;;;;;14.95;8.63;;;16.70;98.40;;;;;;5053606;28;20044;-65
2023/04/18 07:04:53;;;;;;;9.88;6.70;;;16.90;97.90;;;;;;5053956;28;20067;-65
2023/04/18 07:07:57;;;;;;;13.32;7.47;;;16.80;97.50;;;;;;5053646;28;20570;-65
2023/04/18 07:11:02;;;;;;;18.13;11.43;;;16.60;97.00;;;;;;5053990;28;20389;-65
2023/04/18 07:14:05;;;;;;;10.77;8.23;;;16.40;97.80;;;;;;5053995;28;20047;-66
2023/04/18 07:17:09;;;;;;;16.45;8.18;;;16.40;97.50;;;;;;5053986;28;20047;-66
2023/04/18 07:20:15;;;;;;;15.48;8.32;;;16.40;97.60;;;;;;5053579;28;20044;-64
2023/04/18 07:23:18;;;;;;;14.30;8.63;;;16.60;97.70;;;;;;5053151;28;20040;-65
2023/04/18 07:26:22;;;;;;;15.55;9.02;;;16.70;96.90;;;;;;5053090;28;20658;-64
2023/04/18 07:29:26;;;;;;;14.32;8.50;;;16.80;97.10;;;;;;5053688;28;20052;-65
2023/04/18 07:32:31;;;;;;;13.82;7.90;;;16.80;96.70;;;;;;5053517;28;20430;-66
2023/04/18 07:35:35;;;;;;;15.45;9.20;;;16.80;96.50;;;;;;5053284;28;20524;-65
2023/04/18 07:38:40;;;;;;;12.27;7.68;;;17.00;96.50;;;;;;5052759;28;20500;-66
2023/04/18 07:41:44;;;;;;;11.63;8.07;;;17.50;96.30;;;;;;5052505;28;20048;-64
2023/04/18 07:44:48;;;;;;;15.63;7.72;;;18.10;95.30;;;;;;5052255;28;20542;-65
2023/04/18 07:47:52;;;;;;;14.57;7.22;;;18.60;94.30;;;;;;5051708;28;20056;-65
2023/04/18 07:50:56;;;;;;;7.40;6.05;;;18.70;93.30;;;;;;5053279;28;20040;-64
2023/04/18 07:54:00;;;;;;;10.93;6.22;;;18.50;93.30;;;;;;5052813;28;20393;-65
2023/04/18 07:57:04;;;;;;;13.82;5.35;;;18.30;93.90;;;;;;5052995;28;20063;-66
2023/04/18 08:00:09;;;;;;;9.45;4.95;;;18.40;94.00;;;;;;5051989;28;20047;-65
2023/04/18 08:03:19;;;;;;;7.53;6.03;;;18.40;93.40;;;;;;5052719;28;20052;-65
2023/04/18 08:06:23;;;;;;;7.13;5.43;;;18.30;93.60;;;;;;5052647;28;20060;-65
2023/04/18 08:09:27;;;;;;;7.85;5.80;;;18.20;93.20;;;;;;5052600;28;20057;-66
2023/04/18 08:12:31;;;;;;;8.40;5.97;;;18.00;93.20;;;;;;5051926;28;20389;-64
2023/04/18 08:15:35;;;;;;;10.43;6.30;;;17.90;93.80;;;;;;5052449;28;20496;-65
2023/04/18 08:18:39;;;;;;;6.75;5.57;;;17.80;93.90;;;;;;5051391;28;20056;-65
2023/04/18 08:21:43;;;;;;;16.30;5.60;;;17.80;94.10;;;;;;5052129;28;20512;-66
2023/04/18 08:24:47;;;;;;;9.43;5.95;;;17.90;94.30;;;;;;5052384;28;20056;-64
2023/04/18 08:27:51;;;;;;;9.70;5.50;;;18.10;94.10;;;;;;5051156;28;20056;-65
2023/04/18 08:30:55;;;;;;;8.85;5.78;;;18.20;93.70;;;;;;5052500;28;20094;-66
2023/04/18 08:33:59;;;;;;;13.70;6.25;;;18.30;93.60;;;;;;5051501;28;20052;-65
2023/04/18 08:37:03;;;;;;;10.55;5.55;;;18.20;93.30;;;;;;5051346;28;20048;-64
2023/04/18 08:40:07;;;;;;;8.35;5.50;;;18.20;93.40;;;;;;5052082;28;20048;-64
2023/04/18 08:43:13;;;;;;;7.07;4.50;;;18.30;93.10;;;;;;5052112;28;20198;-64
2023/04/18 08:46:18;;;;;;;8.27;4.22;;;18.30;92.80;;;;;;5051939;28;20044;-66
2023/04/18 08:49:23;;;;;;;4.75;4.00;;;18.30;92.50;;;;;;5051928;28;20052;-64
2023/04/18 08:52:29;;;;;;;5.75;5.03;;;18.30;92.60;;;;;;5051870;28;20479;-65
2023/04/18 08:55:34;;;;;;;6.00;4.78;;;18.20;92.90;;;;;;5050882;28;20413;-65
2023/04/18 08:58:39;;;;;;;6.90;4.75;;;18.20;92.70;;;;;;5051740;28;20059;-66
2023/04/18 09:01:57;;;;;;;7.63;6.32;;;18.20;92.90;;;;;;5051754;28;20055;-65
2023/04/18 09:05:10;;;;;;;10.82;6.05;;;18.20;93.10;;;;;;5051857;28;20033;-64
2023/04/18 09:08:23;;;;;;;6.30;5.45;;;18.20;93.00;;;;;;5050620;28;20048;-65
2023/04/18 09:11:30;;;;;;;10.50;6.03;;;18.20;92.70;;;;;;5051046;28;20044;-64
2023/04/18 09:14:41;;;;;;;11.77;7.03;;;18.20;92.90;;;;;;5050428;28;20063;-65
2023/04/18 09:17:52;;;;;;;;;;;18.10;92.80;;;;;;5051408;28;20506;-65
2023/04/18 09:21:14;;;;;;;9.87;5.33;;;17.90;93.10;;;;;;5051236;28;19908;-65
2023/04/18 09:24:22;;;;;;;15.82;6.93;;;18.00;92.90;;;;;;5051144;28;20278;-66
2023/04/18 09:27:33;;;;;;;9.45;5.70;;;18.00;92.90;;;;;;5051348;28;20039;-65
2023/04/18 09:30:40;;;;;;;8.93;5.93;;;18.10;92.80;;;;;;5051590;28;20123;-65
2023/04/18 09:33:55;;;;;;;7.93;5.78;;;18.20;92.60;;;;;;5051252;28;20118;-66
2023/04/18 09:37:10;;;;;;;6.90;4.75;;;18.20;92.20;;;;;;5051507;28;20048;-65
2023/04/18 09:40:18;;;;;;;9.82;5.50;;;18.30;91.90;;;;;;5050904;28;20048;-65
2023/04/18 09:43:22;;;;;;;4.55;2.92;;;18.50;91.40;;;;;;5050276;28;20048;-65
2023/04/18 09:46:27;;;;;;;3.95;3.28;;;18.60;90.00;;;;;;5051335;28;20395;-65
2023/04/18 09:49:31;;;;;;;7.80;3.88;;;18.70;89.30;;;;;;5051045;28;20508;-64
2023/04/18 09:52:40;;;;;;;5.25;3.78;;;18.70;89.60;;;;;;5051103;28;20508;-64
2023/04/18 09:55:48;;;;;;;5.93;3.97;;;18.70;90.10;;;;;;5050951;28;20032;-65
2023/04/18 09:59:04;;;;;;;3.90;3.33;;;18.60;90.10;;;;;;5051082;28;20677;-66
2023/04/18 10:02:19;;;;;;;4.32;2.60;;;18.60;89.40;;;;;;5050692;28;20048;-67
2023/04/18 10:05:25;;;;;;;2.72;2.47;;;18.60;88.30;;;;;;5051012;28;20056;-66
2023/04/18 10:08:30;;;;;;;2.78;2.22;;;18.50;86.60;;;;;;5050562;28;20067;-64
2023/04/18 10:11:35;;;;;;;5.13;3.25;;;18.40;87.00;;;;;;5053410;28;20052;-64
2023/04/18 10:14:42;;;;;;;10.98;4.22;;;18.50;88.00;;;;;;5055110;28;20068;-64
2023/04/18 10:17:53;;;;;;;5.20;3.88;;;18.60;88.90;;;;;;5054006;28;20048;-64
2023/04/18 10:21:03;;;;;;;5.63;3.50;;;18.60;89.60;;;;;;5054948;28;20052;-63
2023/04/18 10:24:27;;;;;;;4.03;3.22;;;18.60;89.90;;;;;;5054672;28;20040;-64
2023/04/18 10:27:55;;;;;;;4.55;3.05;;;18.70;90.20;;;;;;5054814;28;20055;-64
2023/04/18 10:31:04;;;;;;;4.05;3.28;;;18.80;89.00;;;;;;5060644;28;20044;-65
2023/04/18 10:34:16;;;;;;;3.53;3.22;;;18.90;89.30;;;;;;5054577;28;20048;-65
2023/04/18 10:37:20;;;;;;;4.97;3.25;;;19.00;89.90;;;;;;5054450;28;20048;-63
2023/04/18 10:40:34;;;;;;;6.03;3.50;;;19.10;90.20;;;;;;5054687;28;20052;-63
2023/04/18 10:44:06;;;;;;;7.00;3.25;;;19.20;89.20;;;;;;5054908;28;20052;-65
2023/04/18 10:47:17;;;;;;;3.15;2.50;;;19.20;89.80;;;;;;5053499;28;20044;-65
2023/04/18 10:50:21;;;;;;;4.97;2.92;;;19.30;90.60;;;;;;5054596;28;20044;-64
2023/04/18 10:53:26;;;;;;;5.50;3.50;;;19.30;90.80;;;;;;5054259;28;20580;-64
2023/04/18 10:56:31;;;;;;;5.55;3.10;;;19.40;90.30;;;;;;5053005;28;20396;-64
2023/04/18 10:59:51;;;;;;;6.65;3.60;;;19.40;90.60;;;;;;5053955;28;20036;-63
2023/04/18 11:02:56;;;;;;;5.65;3.47;;;19.60;90.70;;;;;;5053884;28;20044;-65
2023/04/18 11:06:01;;;;;;;7.15;3.63;;;19.70;89.70;;;;;;5053646;28;20211;-65
2023/04/18 11:09:13;;;;;;;6.65;4.72;;;19.80;90.00;;;;;;5051721;28;20060;-65
2023/04/18 11:12:17;;;;;;;;;;;19.90;90.00;;;;;;5053888;28;20228;-64
2023/04/18 11:15:23;;;;;;;7.70;3.72;;;20.10;90.10;;;;;;5053934;28;20383;-65
2023/04/18 11:18:39;;;;;;;7.50;4.20;;;20.10;89.70;;;;;;5053950;28;20043;-66
2023/04/18 11:21:44;;;;;;;7.07;3.72;;;20.00;89.30;;;;;;5053667;28;20475;-65
2023/04/18 11:24:48;;;;;;;3.75;3.30;;;19.90;90.00;;;;;;5053298;28;20370;-68
2023/04/18 11:27:54;;;;;;;3.90;3.42;;;19.80;90.30;;;;;;5053632;28;20508;-66
2023/04/18 11:31:00;;;;;;;5.40;3.80;;;19.60;90.40;;;;;;5053537;28;20040;-65
2023/04/18 11:34:04;;;;;;;6.07;3.10;;;19.40;90.40;;;;;;5053267;28;20044;-66
2023/04/18 11:37:08;;;;;;;6.28;3.78;;;19.20;91.00;;;;;;5053141;28;20044;-66
2023/04/18 11:40:13;;;;;;;12.50;6.97;;;19.10;91.30;;;;;;5052408;28;20047;-65
2023/04/18 11:43:24;;;;;;;6.40;4.72;;;18.90;91.90;;;;;;5053340;28;20044;-65
2023/04/18 11:46:37;;;;;;;7.40;4.20;;;18.90;92.70;;;;;;5053325;28;20052;-66
2023/04/18 11:49:42;;;;;;;8.18;4.10;;;18.80;93.20;;;;;;5053253;28;20064;-65
2023/04/18 11:52:50;;;;;;;8.75;3.95;;;18.80;93.10;;;;;;5053267;28;20044;-66
2023/04/18 11:55:54;;;;;;;8.82;4.20;;;18.80;92.90;;;;;;5053307;28;20040;-66
2023/04/18 11:58:58;;;;;;;5.22;4.15;;;18.80;92.80;;;;;;5053199;28;20040;-66
2023/04/18 12:02:03;;;;;;;3.92;3.33;;;18.80;92.80;;;;;;5050551;28;20052;-66
2023/04/18 12:05:08;;;;;;;5.07;3.63;;;18.70;92.70;;;;;;5050936;28;20048;-66
2023/04/18 12:08:18;;;;;;;10.05;4.82;;;18.70;92.70;;;;;;5052135;28;20067;-66
2023/04/18 12:11:22;;;;;;;8.80;5.05;;;18.70;92.90;;;;;;5052255;28;20044;-66
2023/04/18 12:14:27;;;;;;;12.43;5.00;;;18.70;93.30;;;;;;5052061;28;20044;-66
2023/04/18 12:17:31;;;;;;;6.22;4.30;;;18.70;93.40;;;;;;5052169;28;20048;-66
2023/04/18 12:20:44;;;;;;;8.73;4.57;;;18.70;93.50;;;;;;5052740;28;20056;-65
2023/04/18 12:23:49;;;;;;;7.38;4.68;;;18.70;93.70;;;;;;5052339;28;20507;-67
2023/04/18 12:26:53;;;;;;;21.13;5.28;;;18.60;93.70;;;;;;5052807;28;20503;-65
2023/04/18 12:29:57;;;;;;;7.15;5.10;;;18.50;93.80;;;;;;5052366;28;20055;-67
2023/04/18 12:33:03;;;;;;;6.28;4.60;;;18.50;94.00;;;;;;5050873;28;20043;-66
2023/04/18 12:36:10;;;;;;;8.25;4.03;;;18.40;94.00;;;;;;5052466;28;20044;-65
2023/04/18 12:39:13;;;;;;;7.32;4.20;;;18.20;93.80;;;;;;5052455;28;20048;-65
2023/04/18 12:42:18;;;;;;;5.80;4.07;;;18.20;93.90;;;;;;5051784;28;20048;-64
2023/04/18 12:45:23;;;;;;;4.25;3.40;;;18.10;93.90;;;;;;5051044;28;20048;-64
2023/04/18 12:48:27;;;;;;;4.43;3.03;;;18.00;93.90;;;;;;5051738;28;20044;-65
2023/04/18 12:51:31;;;;;;;5.03;3.13;;;17.90;93.50;;;;;;5051046;28;20054;-67
2023/04/18 12:54:34;;;;;;;7.88;3.38;;;17.80;93.60;;;;;;5051749;28;20048;-65
2023/04/18 12:57:41;;;;;;;7.85;3.00;;;17.70;94.00;;;;;;5052025;28;20048;-66
2023/04/18 13:00:47;;;;;;;4.55;3.05;;;17.60;93.80;;;;;;5050542;28;20036;-65
2023/04/18 13:03:51;;;;;;;6.65;3.25;;;17.50;94.30;;;;;;5051317;28;20040;-65
2023/04/18 13:06:55;;;;;;;6.43;3.20;;;17.30;93.90;;;;;;5050877;28;20584;-66
2023/04/18 13:09:59;;;;;;;7.13;3.63;;;17.00;94.40;;;;;;5051483;28;20130;-67
2023/04/18 13:13:03;;;;;;;6.78;3.80;;;16.80;95.30;;;;;;5051197;28;20043;-67
2023/04/18 13:16:07;;;;;;;5.68;3.75;;;16.40;96.40;;;;;;5050736;28;20535;-67
2023/04/18 13:19:11;;;;;;;6.90;4.05;;;16.40;96.60;;;;;;5050603;28;20400;-66
2023/04/18 13:22:18;;;;;;;11.90;4.60;;;16.00;98.10;;;;;;5051461;28;20048;-66
2023/04/18 13:25:22;;;;;;;5.88;4.40;;;15.40;99.00;;;;;;5050957;28;20060;-66
2023/04/18 13:28:26;;;;;;;7.95;5.30;;;15.20;99.90;;;;;;5051304;28;20052;-66
2023/04/18 13:31:30;;;;;;;9.95;5.60;;;;;;;;;;5051487;28;20051;-65
2023/04/18 13:34:37;;;;;;;9.45;6.05;;;12.50;99.90;;;;;;5051527;28;20049;-66
2023/04/18 13:37:41;;;;;;;12.85;5.93;;;14.70;99.90;;;;;;5051448;28;20052;-67
2023/04/18 13:40:45;;;;;;;7.68;5.90;;;;;;;;;;5051137;28;20568;-66
2023/04/18 13:43:49;;;;;;;10.90;5.68;;;;;;;;;;5051161;28;20044;-66
2023/04/18 13:46:53;;;;;;;10.88;6.55;;;14.60;99.90;;;;;;5050485;28;20048;-67
2023/04/18 13:49:57;;;;;;;9.77;5.45;;;14.60;99.90;;;;;;5050589;28;20052;-66
2023/04/18 13:53:02;;;;;;;9.10;5.07;;;;;;;;;;5050746;28;20048;-64
2023/04/18 13:56:06;;;;;;;12.35;6.60;;;14.10;99.90;;;;;;5050655;28;20558;-64
2023/04/18 13:59:10;;;;;;;13.02;7.97;;;16.20;99.90;;;;;;5049768;28;20044;-66
2023/04/18 14:02:14;;;;;;;11.20;7.22;;;14.40;99.90;;;;;;5050393;28;20044;-64
2023/04/18 14:05:19;;;;;;;9.18;6.72;;;;;;;;;;5050495;28;20059;-65
2023/04/18 14:08:23;;;;;;;7.80;5.97;;;15.10;99.90;;;;;;5050829;28;20049;-65
2023/04/18 14:11:27;;;;;;;12.45;7.07;;;12.60;99.90;;;;;;5050469;28;20044;-64
2023/04/18 14:14:31;;;;;;;10.07;6.45;;;;;;;;;;5050559;28;20047;-65
2023/04/18 14:17:35;;;;;;;16.60;9.35;;;14.70;99.90;;;;;;5050549;28;20044;-65
2023/04/18 14:20:40;;;;;;;18.10;12.20;;;;;;;;;;5050438;28;20059;-65
2023/04/18 14:23:44;;;;;;;16.42;11.40;;;;;;;;;;5050295;28;20036;-65
2023/04/18 14:26:48;;;;;;;17.85;11.65;;;14.80;99.90;;;;;;5010729;28;20049;-65
2023/04/18 14:29:52;;;;;;;16.10;11.20;;;;;;;;;;5010803;28;20049;-65
2023/04/18 14:32:57;;;;;;;17.52;11.50;;;14.90;99.90;;;;;;5010612;28;20041;-64
2023/04/18 14:36:01;;;;;;;15.13;11.00;;;14.70;99.90;;;;;;5010639;28;20532;-64
2023/04/18 14:39:05;;;;;;;15.00;11.60;;;14.60;99.90;;;;;;5010737;28;20553;-65
2023/04/18 14:42:09;;;;;;;16.23;10.65;;;14.50;99.90;;;;;;5010801;28;20044;-65
2023/04/18 14:45:15;;;;;;;12.85;9.10;;;14.50;99.90;;;;;;5011039;28;20358;-64
2023/04/18 14:48:20;;;;;;;13.90;8.75;;;14.50;99.90;;;;;;5010558;28;20517;-64
2023/04/18 14:51:25;;;;;;;14.38;9.65;;;13.10;99.90;;;;;;5010463;28;20048;-63
2023/04/18 14:54:29;;;;;;;11.70;7.78;;;;;;;;;;5010628;28;20130;-65
2023/04/18 14:57:37;;;;;;;9.75;6.95;;;14.70;99.90;;;;;;5012347;28;20048;-66
2023/04/18 15:00:41;;;;;;;8.75;6.78;;;;;;;;;;5014324;28;20037;-65
2023/04/18 15:03:45;;;;;;;8.85;6.70;;;14.80;99.90;;;;;;5014024;28;20034;-66
2023/04/18 15:06:49;;;;;;;9.35;7.30;;;14.90;99.90;;;;;;5014013;28;20045;-66
2023/04/18 15:09:53;;;;;;;9.18;6.53;;;14.80;99.90;;;;;;5013848;28;20053;-63
2023/04/18 15:12:56;;;;;;;11.32;7.05;;;15.00;99.90;;;;;;5014186;28;20048;-65
2023/04/18 15:16:01;;;;;;;9.18;7.22;;;15.10;99.90;;;;;;5013364;28;20369;-64
2023/04/18 15:19:05;;;;;;;6.53;5.72;;;15.40;99.90;;;;;;5012948;28;20041;-63
2023/04/18 15:22:09;;;;;;;7.57;6.32;;;15.20;99.90;;;;;;5013817;28;20061;-65
2023/04/18 15:25:15;;;;;;;8.68;6.10;;;15.30;99.90;;;;;;5031248;28;20056;-64
2023/04/18 15:28:19;;;;;;;10.82;6.55;;;15.40;99.90;;;;;;5053031;28;20056;-65
2023/04/18 15:31:23;;;;;;;8.30;6.25;;;15.40;99.90;;;;;;5052531;28;20116;-65
2023/04/18 15:34:27;;;;;;;9.13;7.78;;;15.40;99.90;;;;;;5053555;28;20400;-65
2023/04/18 15:37:31;;;;;;;10.40;7.45;;;15.40;99.90;;;;;;5053293;28;20255;-64
2023/04/18 15:40:35;;;;;;;11.02;7.63;;;15.20;99.90;;;;;;5053383;28;20052;-74
2023/04/18 15:43:40;;;;;;;10.32;7.95;;;;;;;;;;5053329;28;20044;-72
2023/04/18 15:46:44;;;;;;;10.30;8.25;;;15.40;99.90;;;;;;5052850;28;20040;-73
2023/04/18 15:49:48;;;;;;;15.30;9.80;;;15.50;99.90;;;;;;5051835;28;20047;-74
2023/04/18 15:52:53;;;;;;;13.68;10.13;;;14.00;99.90;;;;;;5053227;28;20052;-74
2023/04/18 15:56:00;;;;;;;16.15;10.90;;;15.50;99.90;;;;;;5053050;28;20052;-74
2023/04/18 15:59:05;;;;;;;11.38;8.32;;;15.40;99.90;;;;;;5053094;28;20036;-74
2023/04/18 16:02:09;;;;;;;16.52;12.85;;;15.30;99.90;;;;;;5052933;28;20099;-75
2023/04/18 16:05:14;;;;;;;10.02;7.82;;;15.10;99.90;;;;;;5054579;28;20056;-75
2023/04/18 16:08:18;;;;;;;11.50;7.93;;;15.30;99.90;;;;;;5053366;28;20397;-75
2023/04/18 16:11:25;;;;;;;8.38;6.82;;;15.10;99.90;;;;;;5052805;28;20385;-74
2023/04/18 16:14:30;;;;;;;13.90;11.35;;;15.20;99.90;;;;;;5052964;28;20040;-73